Time;durP1;ratioP1;P1;durP2;ratioP2;P2;SDS_P1;SDS_P2;PMS_P1;PMS_P2;Temp;Humidity;BMP_temperature;BMP_pressure;BME280_temperature;BME280_humidity;BME280_pressure;Samples;Min_cycle;Max_cycle;Signal;HPM_P1;HPM_P2
2021/12/14 00:00:58;;;;;;;34.47;18.88;;;7.90;99.90;;;;;;4879838;29;20132;-84
2021/12/14 00:03:27;;;;;;;33.35;18.65;;;7.90;99.90;;;;;;4879581;29;20053;-84
2021/12/14 00:05:54;;;;;;;35.30;18.65;;;7.80;99.90;;;;;;4863510;29;20057;-84
2021/12/14 00:08:20;;;;;;;36.28;18.92;;;7.80;99.90;;;;;;4863037;29;20124;-84
2021/12/14 00:11:12;;;;;;;35.80;19.95;;;7.80;99.90;;;;;;4863249;29;20049;-84
2021/12/14 00:13:56;;;;;;;33.10;18.95;;;7.80;99.90;;;;;;4878961;29;20070;-84
2021/12/14 00:16:22;;;;;;;28.55;17.42;;;7.80;99.90;;;;;;4879885;29;20064;-84
2021/12/14 00:18:48;;;;;;;33.60;18.10;;;7.80;99.90;;;;;;4862586;29;20057;-84
2021/12/14 00:21:23;;;;;;;33.85;18.50;;;7.80;99.90;;;;;;4879592;29;20049;-84
2021/12/14 00:24:07;;;;;;;30.67;16.92;;;7.80;99.90;;;;;;4862711;29;20041;-84
2021/12/14 00:26:38;;;;;;;35.88;18.13;;;7.80;99.90;;;;;;4879780;29;20127;-84
2021/12/14 00:29:05;;;;;;;33.40;18.40;;;7.80;99.90;;;;;;4863089;29;20053;-83
2021/12/14 00:31:31;;;;;;;35.30;18.33;;;7.80;99.90;;;;;;4862792;29;20053;-84
2021/12/14 00:34:01;;;;;;;40.33;18.10;;;7.80;99.90;;;;;;4879458;29;20045;-84
2021/12/14 00:36:27;;;;;;;32.03;17.23;;;7.80;99.90;;;;;;4862920;29;20168;-84
2021/12/14 00:38:56;;;;;;;35.28;17.85;;;7.80;99.90;;;;;;4862836;29;20053;-84
2021/12/14 00:41:28;;;;;;;37.40;20.58;;;7.80;99.90;;;;;;4881973;29;20056;-84
2021/12/14 00:43:54;;;;;;;31.37;17.53;;;7.80;99.90;;;;;;4866470;29;20056;-84
2021/12/14 00:46:20;;;;;;;34.42;18.55;;;7.70;99.90;;;;;;4882802;29;20305;-83
2021/12/14 00:48:49;;;;;;;32.85;17.98;;;7.70;99.90;;;;;;4882736;29;20045;-84
2021/12/14 00:51:17;;;;;;;32.72;17.63;;;7.70;99.90;;;;;;4865805;29;20093;-83
2021/12/14 00:53:42;;;;;;;36.13;18.40;;;7.70;99.90;;;;;;4882713;29;20093;-83
2021/12/14 00:56:10;;;;;;;36.28;19.52;;;7.70;99.90;;;;;;4865927;29;20443;-83
2021/12/14 00:58:36;;;;;;;36.40;19.60;;;7.70;99.90;;;;;;4866013;29;20404;-84
2021/12/14 01:01:20;;;;;;;34.20;18.67;;;7.70;99.90;;;;;;4882532;29;20080;-84
2021/12/14 01:03:49;;;;;;;32.45;18.48;;;7.80;99.90;;;;;;4882433;29;20620;-83
2021/12/14 01:06:17;;;;;;;36.55;20.25;;;7.80;99.90;;;;;;4882345;29;20057;-84
2021/12/14 01:08:45;;;;;;;36.55;19.55;;;7.70;99.90;;;;;;4882205;29;20514;-83
2021/12/14 01:11:32;;;;;;;37.42;18.60;;;7.70;99.90;;;;;;4882285;29;20053;-84
2021/12/14 01:14:05;;;;;;;35.42;18.65;;;7.70;99.90;;;;;;4865715;29;20041;-84
2021/12/14 01:16:53;;;;;;;33.42;19.35;;;7.80;99.90;;;;;;4882378;29;20049;-84
2021/12/14 01:19:26;;;;;;;35.22;18.70;;;7.70;99.90;;;;;;4882141;29;20132;-84
2021/12/14 01:22:16;;;;;;;32.83;18.58;;;7.80;99.90;;;;;;4882258;29;20064;-84
2021/12/14 01:27:20;;;;;;;34.80;18.98;;;7.80;99.90;;;;;;4882142;29;20053;-84
2021/12/14 01:29:49;;;;;;;38.95;20.10;;;7.70;99.90;;;;;;4882237;29;20073;-84
2021/12/14 01:32:17;;;;;;;40.25;21.00;;;7.80;99.90;;;;;;4865504;29;20097;-84
2021/12/14 01:34:43;;;;;;;36.20;20.48;;;7.70;99.90;;;;;;4882220;29;20056;-84
2021/12/14 01:37:14;;;;;;;36.97;20.50;;;7.70;99.90;;;;;;4882026;29;20049;-84
2021/12/14 01:39:49;;;;;;;38.85;20.58;;;7.80;99.90;;;;;;4865089;29;20057;-84
2021/12/14 01:42:23;;;;;;;41.42;19.83;;;7.70;99.90;;;;;;4881883;29;20045;-83
2021/12/14 01:44:54;;;;;;;35.67;21.20;;;7.70;99.90;;;;;;4865160;29;20053;-84
2021/12/14 01:47:27;;;;;;;44.90;21.48;;;7.70;99.90;;;;;;4881651;29;20061;-84
2021/12/14 01:49:53;;;;;;;42.25;19.95;;;7.70;99.90;;;;;;4864918;29;20057;-84
2021/12/14 01:52:27;;;;;;;42.33;21.98;;;7.70;99.90;;;;;;4864002;29;20049;-84
2021/12/14 01:54:59;;;;;;;41.40;22.88;;;7.70;99.90;;;;;;4865397;29;20079;-84
2021/12/14 01:57:29;;;;;;;38.53;20.85;;;7.70;99.90;;;;;;4881659;29;20049;-84
2021/12/14 01:59:58;;;;;;;42.20;22.58;;;7.70;99.90;;;;;;4881694;29;20097;-84
2021/12/14 02:02:40;;;;;;;39.55;21.80;;;7.60;99.90;;;;;;4881340;29;20049;-84
2021/12/14 02:05:14;;;;;;;40.88;22.23;;;7.70;99.90;;;;;;4864666;29;20063;-84
2021/12/14 02:07:40;;;;;;;46.47;22.80;;;7.70;99.90;;;;;;4864675;29;20057;-84
2021/12/14 02:10:11;;;;;;;46.03;23.40;;;7.70;99.90;;;;;;4864450;29;20136;-84
2021/12/14 02:12:41;;;;;;;39.03;22.60;;;7.70;99.90;;;;;;4881236;29;20040;-83
2021/12/14 02:15:32;;;;;;;42.28;24.38;;;7.70;99.90;;;;;;4881465;29;20528;-84
2021/12/14 02:18:00;;;;;;;38.85;22.17;;;7.70;99.90;;;;;;4880801;29;20064;-83
2021/12/14 02:20:29;;;;;;;44.92;23.65;;;7.70;99.90;;;;;;4881108;29;20088;-84
2021/12/14 02:22:56;;;;;;;49.63;23.30;;;7.60;99.90;;;;;;4881201;29;20064;-84
2021/12/14 02:25:22;;;;;;;43.60;23.90;;;7.60;99.90;;;;;;4864451;29;20393;-83
2021/12/14 02:27:50;;;;;;;46.47;24.95;;;7.60;99.90;;;;;;4881046;29;20132;-83
2021/12/14 02:30:27;;;;;;;42.53;23.45;;;7.60;99.90;;;;;;4864338;29;20048;-83
2021/12/14 02:32:53;;;;;;;44.13;24.00;;;7.60;99.90;;;;;;4864255;29;20065;-84
2021/12/14 02:35:24;;;;;;;44.53;24.52;;;7.60;99.90;;;;;;4881136;29;20053;-83
2021/12/14 02:37:57;;;;;;;47.15;23.75;;;7.60;99.90;;;;;;4880812;29;20051;-84
2021/12/14 02:40:57;;;;;;;43.40;23.10;;;7.60;99.90;;;;;;4880748;29;20057;-84
2021/12/14 02:43:34;;;;;;;48.40;23.90;;;7.60;99.90;;;;;;4880762;29;20048;-84
2021/12/14 02:46:06;;;;;;;43.92;22.35;;;7.50;99.90;;;;;;4864851;29;20068;-84
2021/12/14 02:48:33;;;;;;;47.28;23.40;;;7.50;99.90;;;;;;4880672;29;20511;-84
2021/12/14 02:51:11;;;;;;;46.85;24.67;;;7.60;99.90;;;;;;4880689;29;20041;-84
2021/12/14 02:53:37;;;;;;;47.90;25.17;;;7.50;99.90;;;;;;4864215;29;20056;-84
2021/12/14 02:56:09;;;;;;;53.22;24.88;;;7.50;99.90;;;;;;4880377;29;20496;-84
2021/12/14 02:58:34;;;;;;;47.80;26.10;;;7.50;99.90;;;;;;4880466;29;20105;-84
2021/12/14 03:01:01;;;;;;;48.53;22.42;;;7.50;99.90;;;;;;4863931;29;20060;-84
2021/12/14 03:03:27;;;;;;;50.63;24.30;;;7.50;99.90;;;;;;4863187;29;20088;-84
2021/12/14 03:05:53;;;;;;;48.92;23.73;;;7.50;99.90;;;;;;4863829;29;20087;-84
2021/12/14 03:08:25;;;;;;;46.88;23.83;;;7.50;99.90;;;;;;4863813;29;20052;-84
2021/12/14 03:11:10;;;;;;;51.20;24.37;;;7.50;99.90;;;;;;4880205;29;20049;-84
2021/12/14 03:13:40;;;;;;;53.53;24.42;;;7.50;99.90;;;;;;4863862;29;20053;-84
2021/12/14 03:16:13;;;;;;;50.65;24.45;;;7.50;99.90;;;;;;4880456;29;20176;-84
2021/12/14 03:18:40;;;;;;;;;;;7.50;99.90;;;;;;4880587;29;20053;-83
2021/12/14 03:21:30;;;;;;;47.80;22.58;;;7.50;99.90;;;;;;4880276;29;19928;-83
2021/12/14 03:24:01;;;;;;;46.00;23.58;;;7.50;99.90;;;;;;4874849;29;20057;-83
2021/12/14 03:26:30;;;;;;;55.13;25.15;;;7.50;99.90;;;;;;4880135;29;20060;-83
2021/12/14 03:29:03;;;;;;;53.55;26.67;;;7.50;99.90;;;;;;4863310;29;20088;-83
2021/12/14 03:31:40;;;;;;;52.03;26.10;;;7.50;99.90;;;;;;4863573;29;20053;-83
2021/12/14 03:34:09;;;;;;;55.10;26.60;;;7.50;99.90;;;;;;4879860;29;20053;-83
2021/12/14 03:36:51;;;;;;;59.13;26.40;;;7.50;99.90;;;;;;4863288;29;20083;-83
2021/12/14 03:39:21;;;;;;;55.63;26.37;;;7.40;99.90;;;;;;4863412;29;20457;-83
2021/12/14 03:42:03;;;;;;;54.38;26.73;;;7.50;99.90;;;;;;4863340;29;20057;-83
2021/12/14 03:44:32;;;;;;;54.60;26.15;;;7.50;99.90;;;;;;4863207;29;20057;-83
2021/12/14 03:47:03;;;;;;;51.38;26.02;;;7.50;99.90;;;;;;4863432;29;20080;-83
2021/12/14 03:49:34;;;;;;;56.22;25.75;;;7.40;99.90;;;;;;4863247;29;20137;-83
2021/12/14 03:52:01;;;;;;;59.75;27.20;;;7.50;99.90;;;;;;4863138;29;20048;-83
2021/12/14 03:54:27;;;;;;;54.95;25.70;;;7.50;99.90;;;;;;4863287;29;20063;-83
2021/12/14 03:56:54;;;;;;;55.85;28.80;;;7.50;99.90;;;;;;4879704;29;20041;-83
2021/12/14 03:59:21;;;;;;;62.10;28.25;;;7.50;99.90;;;;;;4863073;29;20404;-83
2021/12/14 04:01:50;;;;;;;62.20;27.92;;;7.50;99.90;;;;;;4863063;29;20061;-83
2021/12/14 04:04:20;;;;;;;60.33;27.00;;;7.50;99.90;;;;;;4879485;29;20057;-83
2021/12/14 04:06:50;;;;;;;61.50;28.95;;;7.50;99.90;;;;;;4879568;29;20489;-84
2021/12/14 04:09:18;;;;;;;64.30;28.20;;;7.50;99.90;;;;;;4863058;29;20125;-83
2021/12/14 04:11:44;;;;;;;64.97;29.10;;;7.50;99.90;;;;;;4879727;29;20056;-83
2021/12/14 04:14:10;;;;;;;60.22;27.13;;;7.50;99.90;;;;;;4863220;29;20044;-83
2021/12/14 04:16:39;;;;;;;67.03;28.20;;;7.50;99.90;;;;;;4865847;29;20504;-83
2021/12/14 04:19:11;;;;;;;69.97;29.38;;;7.50;99.90;;;;;;4866514;29;20093;-83
2021/12/14 04:21:41;;;;;;;68.45;29.67;;;7.50;99.90;;;;;;4883516;29;20037;-83
2021/12/14 04:24:09;;;;;;;68.20;28.45;;;7.50;99.90;;;;;;4883127;29;20061;-83
2021/12/14 04:26:37;;;;;;;65.90;30.67;;;7.50;99.90;;;;;;4866386;29;20060;-83
2021/12/14 04:29:04;;;;;;;73.70;30.70;;;7.50;99.90;;;;;;4883167;29;20045;-83
2021/12/14 04:31:36;;;;;;;67.03;29.25;;;7.50;99.90;;;;;;4882850;29;20106;-83
2021/12/14 04:34:03;;;;;;;66.75;28.23;;;7.50;99.90;;;;;;4882883;29;20113;-83
2021/12/14 04:36:30;;;;;;;73.30;29.20;;;7.50;99.90;;;;;;4866250;29;20185;-84
2021/12/14 04:39:02;;;;;;;73.47;28.80;;;7.50;99.90;;;;;;4883056;29;20524;-84
2021/12/14 04:52:51;;;;;;;92.60;29.77;;;7.60;99.90;;;;;;4882822;29;19930;-83
2021/12/14 04:55:17;;;;;;;74.50;29.17;;;7.60;99.90;;;;;;4865922;29;20097;-83
2021/12/14 04:57:46;;;;;;;77.47;29.40;;;7.60;99.90;;;;;;4882510;29;20052;-83
2021/12/14 05:00:27;;;;;;;66.50;29.50;;;7.60;99.90;;;;;;4882499;29;20489;-83
2021/12/14 05:02:56;;;;;;;79.85;30.35;;;7.60;99.90;;;;;;4865518;29;20424;-83
2021/12/14 05:05:44;;;;;;;79.38;30.85;;;7.60;99.90;;;;;;4882538;29;20076;-83
2021/12/14 05:10:37;;;;;;;81.00;31.42;;;7.60;99.90;;;;;;4865737;29;20067;-83
2021/12/14 05:13:03;;;;;;;73.80;30.05;;;7.60;99.90;;;;;;4882358;29;20144;-83
2021/12/14 05:15:29;;;;;;;78.78;29.42;;;7.60;99.90;;;;;;4882164;29;20120;-83
2021/12/14 05:17:54;;;;;;;81.05;30.80;;;7.60;99.90;;;;;;4882079;29;20067;-83
2021/12/14 05:20:20;;;;;;;84.18;32.08;;;7.60;99.90;;;;;;4881983;29;20045;-83
2021/12/14 05:22:47;;;;;;;80.85;31.52;;;7.50;99.90;;;;;;4882141;29;20049;-83
2021/12/14 05:25:25;;;;;;;89.82;31.67;;;7.60;99.90;;;;;;4882125;29;20148;-83
2021/12/14 05:27:59;;;;;;;83.15;30.95;;;7.60;99.90;;;;;;4865597;29;20132;-83
2021/12/14 05:30:32;;;;;;;81.03;30.90;;;7.50;99.90;;;;;;4881859;29;20543;-84
2021/12/14 05:33:10;;;;;;;79.70;32.33;;;7.60;99.90;;;;;;4882174;29;20396;-83
2021/12/14 05:35:37;;;;;;;78.03;31.15;;;7.60;99.90;;;;;;4865285;29;20057;-83
2021/12/14 05:38:08;;;;;;;91.53;30.85;;;7.60;99.90;;;;;;4881883;29;20052;-83
2021/12/14 05:43:22;;;;;;;83.80;31.17;;;7.60;99.90;;;;;;4865285;29;20095;-83
2021/12/14 05:45:53;;;;;;;83.40;33.08;;;7.60;99.90;;;;;;4881560;29;20045;-83
2021/12/14 05:48:25;;;;;;;90.22;31.73;;;7.60;99.90;;;;;;4881708;29;20493;-83
2021/12/14 05:50:59;;;;;;;81.78;31.27;;;7.60;99.90;;;;;;4881848;29;20048;-83
2021/12/14 05:53:34;;;;;;;82.57;31.50;;;7.60;99.90;;;;;;4864831;29;20081;-83
2021/12/14 05:56:07;;;;;;;85.03;32.75;;;7.60;99.90;;;;;;4881806;29;20453;-83
2021/12/14 05:58:33;;;;;;;78.82;29.63;;;7.60;99.90;;;;;;4864811;29;20148;-83
2021/12/14 06:01:03;;;;;;;84.43;32.42;;;7.60;99.90;;;;;;4881228;29;20556;-83
2021/12/14 06:03:32;;;;;;;78.20;32.38;;;7.60;99.90;;;;;;4881269;29;20086;-83
2021/12/14 06:06:00;;;;;;;79.13;32.58;;;7.60;99.90;;;;;;4864842;29;20061;-83
2021/12/14 06:08:29;;;;;;;87.28;32.58;;;7.60;99.90;;;;;;4881428;29;20063;-83
2021/12/14 06:10:56;;;;;;;84.35;31.83;;;7.60;99.90;;;;;;4881089;29;20045;-83
2021/12/14 06:13:34;;;;;;;79.03;31.17;;;7.60;99.90;;;;;;4881317;29;20488;-83
2021/12/14 06:16:00;;;;;;;89.40;32.38;;;7.60;99.90;;;;;;4881114;29;20053;-83
2021/12/14 06:18:26;;;;;;;72.05;30.88;;;7.60;99.90;;;;;;4881380;29;20401;-84
2021/12/14 06:20:52;;;;;;;78.65;31.23;;;7.60;99.90;;;;;;4881229;29;20053;-84
2021/12/14 06:23:26;;;;;;;75.07;31.08;;;7.70;99.90;;;;;;4864593;29;20049;-83
2021/12/14 06:25:52;;;;;;;86.03;31.65;;;7.60;99.90;;;;;;4881051;29;20405;-84
2021/12/14 06:28:27;;;;;;;83.70;29.70;;;7.60;99.90;;;;;;4880979;29;20052;-84
2021/12/14 06:30:55;;;;;;;87.78;32.88;;;7.60;99.90;;;;;;4864994;29;20061;-84
2021/12/14 06:33:21;;;;;;;80.10;32.15;;;7.60;99.90;;;;;;4864345;29;20446;-84
2021/12/14 06:35:50;;;;;;;85.88;31.67;;;7.60;99.90;;;;;;4864588;29;20045;-84
2021/12/14 06:38:27;;;;;;;79.88;29.98;;;7.60;99.90;;;;;;4863817;29;20092;-84
2021/12/14 06:41:15;;;;;;;86.63;32.47;;;7.60;99.90;;;;;;4864173;29;20459;-84
2021/12/14 06:43:52;;;;;;;80.40;31.45;;;7.70;99.90;;;;;;4864254;29;20139;-84
2021/12/14 06:46:23;;;;;;;84.65;32.15;;;7.60;99.90;;;;;;4864224;29;20059;-84
2021/12/14 06:48:51;;;;;;;87.57;32.50;;;7.60;99.90;;;;;;4880817;29;20049;-84
2021/12/14 06:51:24;;;;;;;82.55;33.08;;;7.70;99.90;;;;;;4863940;29;20057;-84
2021/12/14 06:53:52;;;;;;;;;;;7.60;99.90;;;;;;4881059;29;20048;-84
2021/12/14 06:56:31;;;;;;;84.82;31.25;;;7.60;99.90;;;;;;4880514;29;19923;-84
2021/12/14 06:59:09;;;;;;;83.10;32.70;;;7.60;99.90;;;;;;4880436;29;20507;-84
2021/12/14 07:01:47;;;;;;;81.13;32.53;;;7.60;99.90;;;;;;4880446;29;20049;-84
2021/12/14 07:04:17;;;;;;;86.45;32.75;;;7.60;99.90;;;;;;4880702;29;20139;-84
2021/12/14 07:06:49;;;;;;;76.15;32.38;;;7.60;99.90;;;;;;4864319;29;20061;-84
2021/12/14 07:09:26;;;;;;;81.50;30.83;;;7.60;99.90;;;;;;4863904;29;20049;-84
2021/12/14 07:11:58;;;;;;;88.05;33.33;;;7.60;99.90;;;;;;4880344;29;20049;-84
2021/12/14 07:14:27;;;;;;;85.05;31.10;;;7.60;99.90;;;;;;4880135;29;20515;-83
2021/12/14 07:17:01;;;;;;;82.68;32.83;;;7.60;99.90;;;;;;4863642;29;20064;-84
2021/12/14 07:20:15;;;;;;;85.38;32.58;;;7.60;99.90;;;;;;4880292;29;20064;-84
2021/12/14 07:22:42;;;;;;;;;;;7.60;99.90;;;;;;4880877;29;20129;-83
2021/12/14 07:25:08;;;;;;;82.47;31.80;;;7.60;99.90;;;;;;4863772;29;19923;-84
2021/12/14 07:27:38;;;;;;;84.10;31.85;;;7.60;99.90;;;;;;4879968;29;20442;-83
2021/12/14 07:30:22;;;;;;;82.82;32.33;;;7.60;99.90;;;;;;4863355;29;20127;-83
2021/12/14 07:32:47;;;;;;;89.47;32.17;;;7.60;99.90;;;;;;4863668;29;20056;-83
2021/12/14 07:35:36;;;;;;;91.32;33.03;;;7.60;99.90;;;;;;4880106;29;20082;-83
2021/12/14 07:38:24;;;;;;;87.45;33.05;;;7.60;99.90;;;;;;4880079;29;20089;-84
2021/12/14 07:41:05;;;;;;;97.32;35.70;;;7.60;99.90;;;;;;4863397;29;20055;-84
2021/12/14 07:43:48;;;;;;;86.43;32.38;;;7.60;99.90;;;;;;4863105;29;20434;-84
2021/12/14 07:46:22;;;;;;;88.05;32.92;;;7.60;99.90;;;;;;4863553;29;20501;-83
2021/12/14 07:49:03;;;;;;;87.10;31.73;;;7.60;99.90;;;;;;4863375;29;20056;-85
2021/12/14 07:51:32;;;;;;;85.05;32.08;;;7.60;99.90;;;;;;4882920;29;20048;-83
2021/12/14 07:54:20;;;;;;;82.43;33.08;;;7.60;99.90;;;;;;4867644;29;20438;-83
2021/12/14 07:56:51;;;;;;;86.80;31.33;;;7.60;99.90;;;;;;4867074;29;20045;-84
2021/12/14 07:59:25;;;;;;;85.47;32.10;;;7.60;99.90;;;;;;4866943;29;20049;-83
2021/12/14 08:02:25;;;;;;;89.25;30.38;;;7.60;99.90;;;;;;4866649;29;20049;-83
2021/12/14 08:04:54;;;;;;;83.30;31.27;;;7.60;99.90;;;;;;4875955;29;20108;-83
2021/12/14 08:07:43;;;;;;;93.20;32.40;;;7.60;99.90;;;;;;4866467;29;20060;-83
2021/12/14 08:10:15;;;;;;;79.85;29.05;;;7.60;99.90;;;;;;4865909;29;20053;-84
2021/12/14 08:13:15;;;;;;;89.65;30.40;;;7.60;99.90;;;;;;4882500;29;20049;-85
2021/12/14 08:15:58;;;;;;;81.47;29.88;;;7.60;99.90;;;;;;4853481;29;20041;-85
2021/12/14 08:18:32;;;;;;;83.72;31.00;;;7.60;99.90;;;;;;4847092;29;20516;-83
2021/12/14 08:21:11;;;;;;;83.30;31.00;;;7.60;99.90;;;;;;4847166;29;20053;-84
2021/12/14 08:23:41;;;;;;;80.78;31.45;;;7.70;99.90;;;;;;4846758;29;20445;-84
2021/12/14 08:26:15;;;;;;;104.53;33.35;;;7.70;99.90;;;;;;4847491;29;20050;-85
2021/12/14 08:28:55;;;;;;;99.47;33.80;;;7.60;99.90;;;;;;4847779;29;20089;-84
2021/12/14 08:31:25;;;;;;;100.63;34.45;;;7.60;99.90;;;;;;4847575;29;20504;-84
2021/12/14 08:33:58;;;;;;;94.70;32.22;;;7.70;99.90;;;;;;4847806;29;20058;-84
2021/12/14 08:36:40;;;;;;;91.63;32.85;;;7.60;99.90;;;;;;4864018;29;20049;-84
2021/12/14 08:39:13;;;;;;;104.65;32.50;;;7.60;99.90;;;;;;4847582;29;20537;-84
2021/12/14 08:41:47;;;;;;;98.25;33.15;;;7.60;99.90;;;;;;4847254;29;20049;-84
2021/12/14 08:44:20;;;;;;;98.68;32.05;;;7.70;99.90;;;;;;4847382;29;20466;-84
2021/12/14 08:46:50;;;;;;;89.30;32.47;;;7.60;99.90;;;;;;4847204;29;20045;-84
2021/12/14 08:49:17;;;;;;;98.63;33.40;;;7.60;99.90;;;;;;4847054;29;20037;-84
2021/12/14 08:51:45;;;;;;;100.10;32.78;;;7.60;99.90;;;;;;4847034;29;20087;-84
2021/12/14 08:54:21;;;;;;;95.88;33.92;;;7.70;99.90;;;;;;4846997;29;20445;-84
2021/12/14 08:57:13;;;;;;;99.60;33.30;;;7.70;99.90;;;;;;4863797;29;20133;-84
2021/12/14 08:59:45;;;;;;;104.97;33.88;;;7.70;99.90;;;;;;4845006;29;20429;-85
2021/12/14 09:02:14;;;;;;;99.60;32.42;;;7.70;99.90;;;;;;4846583;29;20042;-85
2021/12/14 09:05:04;;;;;;;113.80;32.97;;;7.70;99.90;;;;;;4847175;29;20142;-85
2021/12/14 09:07:32;;;;;;;117.10;33.60;;;7.70;99.90;;;;;;4846982;29;20049;-85
2021/12/14 09:10:05;;;;;;;108.53;33.95;;;7.70;99.90;;;;;;4846773;29;20128;-84
2021/12/14 09:12:39;;;;;;;108.47;34.15;;;7.70;99.90;;;;;;4846922;29;20431;-83
2021/12/14 09:15:08;;;;;;;113.35;33.90;;;7.70;99.90;;;;;;4863301;29;20059;-85
2021/12/14 09:17:35;;;;;;;103.53;34.60;;;7.70;99.90;;;;;;4846445;29;20061;-85
2021/12/14 09:20:07;;;;;;;119.90;36.72;;;7.70;99.90;;;;;;4846586;29;20103;-85
2021/12/14 09:22:49;;;;;;;119.27;35.20;;;7.70;99.90;;;;;;4863137;29;20050;-86
2021/12/14 09:25:43;;;;;;;;;;;;;;;;;;;;;
2021/12/14 09:28:45;;;;;;;109.80;37.97;;;7.70;99.90;;;;;;4861062;29;20132;-85
2021/12/14 09:31:48;;;;;;;121.13;36.75;;;7.70;99.90;;;;;;4861524;29;20087;-85
2021/12/14 09:34:17;;;;;;;123.28;36.58;;;7.70;99.90;;;;;;4846650;29;20049;-85
2021/12/14 09:36:49;;;;;;;133.87;38.97;;;7.80;99.90;;;;;;4844202;29;20060;-85
2021/12/14 09:39:37;;;;;;;115.32;36.67;;;7.80;99.90;;;;;;4855371;29;20057;-85
2021/12/14 09:42:11;;;;;;;124.13;38.47;;;7.80;99.90;;;;;;4861983;29;20059;-85
2021/12/14 09:44:38;;;;;;;128.57;39.72;;;7.80;99.90;;;;;;4846747;29;20045;-85
2021/12/14 09:47:16;;;;;;;144.05;40.13;;;7.80;99.90;;;;;;4846321;29;20049;-84
2021/12/14 09:49:43;;;;;;;120.25;40.08;;;7.80;99.90;;;;;;4846621;29;20533;-84
2021/12/14 09:52:30;;;;;;;149.82;40.55;;;7.80;99.90;;;;;;4846337;29;20091;-84
2021/12/14 09:54:58;;;;;;;134.15;38.75;;;7.90;99.90;;;;;;4851200;29;20049;-85
2021/12/14 09:57:34;;;;;;;127.90;37.55;;;7.80;99.90;;;;;;4860927;29;20059;-85
2021/12/14 10:00:04;;;;;;;122.53;37.35;;;7.80;99.90;;;;;;4864371;29;20084;-84
2021/12/14 10:02:36;;;;;;;116.57;38.15;;;7.80;99.90;;;;;;4879734;29;20049;-86
2021/12/14 10:06:12;;;;;;;;;;;;;;;;;;;;;
2021/12/14 10:09:02;;;;;;;106.82;33.45;;;7.90;99.90;;;;;;4864246;29;20108;-85
2021/12/14 10:12:39;;;;;;;113.32;33.65;;;7.90;99.90;;;;;;4864865;29;20049;-83
2021/12/14 10:15:33;;;;;;;101.85;30.98;;;7.90;99.90;;;;;;4862916;29;20110;-83
2021/12/14 10:18:26;;;;;;;117.30;33.17;;;7.90;99.90;;;;;;4880781;29;20087;-88
2021/12/14 10:24:14;;;;;;;102.90;33.92;;;7.90;99.90;;;;;;4882574;23;20159;-85
2021/12/14 10:30:54;;;;;;;116.22;34.00;;;7.90;99.90;;;;;;4873704;24;20056;-85
2021/12/14 10:33:25;;;;;;;114.05;31.60;;;8.00;99.90;;;;;;4845886;29;20122;-85
2021/12/14 10:36:23;;;;;;;103.90;34.13;;;8.00;99.90;;;;;;4845232;29;20485;-85
2021/12/14 10:44:51;;;;;;;101.35;29.98;;;8.00;99.90;;;;;;4844566;29;20466;-85
2021/12/14 10:47:20;;;;;;;104.68;31.65;;;8.10;99.90;;;;;;4845077;29;20081;-84
2021/12/14 10:49:49;;;;;;;101.82;35.47;;;8.10;99.90;;;;;;4845245;29;20045;-84
2021/12/14 10:52:29;;;;;;;104.32;31.90;;;8.10;99.90;;;;;;4845156;29;20061;-84
2021/12/14 10:55:01;;;;;;;116.90;32.75;;;8.10;99.90;;;;;;4844888;29;20080;-84
2021/12/14 10:57:31;;;;;;;112.68;35.97;;;8.20;99.90;;;;;;4844894;29;20045;-85
2021/12/14 10:59:59;;;;;;;106.90;33.75;;;8.20;99.90;;;;;;4845209;29;20076;-86
2021/12/14 11:02:39;;;;;;;105.70;33.60;;;8.20;99.90;;;;;;4844713;29;20061;-86
2021/12/14 11:05:17;;;;;;;110.85;34.15;;;8.20;99.90;;;;;;4844845;29;20049;-85
2021/12/14 11:11:32;;;;;;;100.78;29.50;;;8.20;99.90;;;;;;4844543;29;20401;-84
2021/12/14 11:14:02;;;;;;;85.47;27.42;;;8.10;99.90;;;;;;4844890;29;20493;-85
2021/12/14 11:19:58;;;;;;;90.03;29.25;;;8.10;99.90;;;;;;4844541;29;20064;-84
2021/12/14 11:22:31;;;;;;;91.32;29.30;;;8.10;99.90;;;;;;4844689;29;20080;-85
2021/12/14 11:25:02;;;;;;;;;;;8.10;99.90;;;;;;4844797;29;20053;-83
2021/12/14 11:27:32;;;;;;;95.38;29.17;;;8.10;99.90;;;;;;4844482;29;19924;-85
2021/12/14 11:30:33;;;;;;;95.07;28.83;;;8.10;99.90;;;;;;4862555;29;20113;-85
2021/12/14 11:33:42;;;;;;;104.05;28.80;;;8.10;99.90;;;;;;4844599;29;20454;-86
2021/12/14 11:36:41;;;;;;;95.28;27.58;;;8.20;99.90;;;;;;4844627;29;20144;-85
2021/12/14 11:39:31;;;;;;;98.50;26.45;;;8.20;99.90;;;;;;4844059;29;20085;-85
2021/12/14 11:41:59;;;;;;;89.10;25.20;;;8.20;99.90;;;;;;4844075;29;20065;-85
2021/12/14 11:44:47;;;;;;;83.00;24.50;;;8.20;99.90;;;;;;4848512;29;20247;-83
2021/12/14 11:47:50;;;;;;;84.20;25.35;;;8.30;99.90;;;;;;4844428;29;20446;-85
2021/12/14 11:50:22;;;;;;;77.25;25.08;;;8.30;99.90;;;;;;4843938;29;20064;-85
2021/12/14 11:53:06;;;;;;;77.40;23.85;;;8.30;99.90;;;;;;4842381;29;20081;-86
2021/12/14 11:55:38;;;;;;;72.63;21.85;;;8.30;99.90;;;;;;4843554;29;20049;-83
2021/12/14 11:58:26;;;;;;;78.07;22.25;;;8.30;99.90;;;;;;4844204;29;20053;-84
2021/12/14 12:01:17;;;;;;;70.68;19.80;;;8.30;99.90;;;;;;4842862;29;20045;-86
2021/12/14 12:03:53;;;;;;;67.18;19.90;;;8.30;99.90;;;;;;4844281;29;20049;-84
2021/12/14 12:12:19;;;;;;;57.95;18.17;;;8.30;99.90;;;;;;4843940;29;20054;-85
2021/12/14 12:15:06;;;;;;;56.80;17.90;;;8.30;99.90;;;;;;4843833;29;20057;-85
2021/12/14 12:17:47;;;;;;;52.28;18.77;;;8.30;99.90;;;;;;4844227;29;20715;-85
2021/12/14 12:20:33;;;;;;;58.22;18.67;;;8.30;99.90;;;;;;4843928;29;20054;-85
2021/12/14 12:23:09;;;;;;;50.25;17.50;;;8.30;99.90;;;;;;4844017;29;20045;-84
2021/12/14 12:25:45;;;;;;;54.75;16.35;;;8.30;99.90;;;;;;4844269;29;20198;-84
2021/12/14 12:28:34;;;;;;;51.15;17.42;;;8.40;99.90;;;;;;4840780;29;20073;-85
2021/12/14 12:31:19;;;;;;;52.42;16.48;;;8.40;99.90;;;;;;4854707;29;20413;-85
2021/12/14 12:34:10;;;;;;;52.08;17.35;;;8.40;99.90;;;;;;4878012;29;20064;-85
2021/12/14 12:36:41;;;;;;;48.10;15.25;;;8.40;99.90;;;;;;4878854;29;20044;-85
2021/12/14 12:39:27;;;;;;;46.05;14.55;;;8.40;99.90;;;;;;4877646;29;20063;-84
2021/12/14 12:42:09;;;;;;;46.30;13.65;;;8.40;99.90;;;;;;4881634;29;20501;-85
2021/12/14 12:44:39;;;;;;;42.55;13.52;;;8.40;99.90;;;;;;4881245;29;20045;-84
2021/12/14 12:47:21;;;;;;;33.25;12.43;;;8.50;99.90;;;;;;4881757;29;20045;-84
2021/12/14 12:49:53;;;;;;;32.83;12.60;;;8.50;99.90;;;;;;4881440;29;20044;-84
2021/12/14 12:52:27;;;;;;;33.13;10.93;;;8.50;99.90;;;;;;4881340;29;20044;-84
2021/12/14 12:55:11;;;;;;;29.30;10.43;;;8.60;99.90;;;;;;4881059;29;20135;-84
2021/12/14 12:57:57;;;;;;;32.05;11.18;;;8.60;99.90;;;;;;4881186;29;20055;-84
2021/12/14 13:00:23;;;;;;;31.55;11.43;;;8.60;99.90;;;;;;4881033;29;20513;-84
2021/12/14 13:05:44;;;;;;;28.65;10.45;;;8.60;99.90;;;;;;5001782;23;20085;-84
2021/12/14 13:08:47;;;;;;;28.67;10.23;;;8.60;99.90;;;;;;4847151;29;20060;-84
2021/12/14 13:11:46;;;;;;;28.77;9.40;;;8.60;99.90;;;;;;4790777;29;20077;-84
2021/12/14 13:14:23;;;;;;;32.85;11.57;;;8.60;99.90;;;;;;4791092;29;20050;-85
2021/12/14 13:16:51;;;;;;;32.65;11.68;;;8.60;99.90;;;;;;4791164;29;20059;-83
2021/12/14 13:19:30;;;;;;;39.47;12.45;;;8.60;99.90;;;;;;4797662;29;20090;-83
2021/12/14 13:22:02;;;;;;;33.30;12.50;;;8.70;99.90;;;;;;4820377;29;20063;-83
2021/12/14 13:24:34;;;;;;;35.53;13.90;;;8.70;99.90;;;;;;4846625;29;20137;-83
2021/12/14 13:27:08;;;;;;;41.22;14.10;;;8.70;99.90;;;;;;4846963;29;20052;-83
2021/12/14 13:29:50;;;;;;;41.08;13.85;;;8.70;99.90;;;;;;4846641;29;20075;-83
2021/12/14 13:32:29;;;;;;;42.63;14.27;;;8.70;99.90;;;;;;4846470;29;20054;-84
2021/12/14 13:35:10;;;;;;;48.30;14.40;;;8.70;99.90;;;;;;4846412;29;20134;-84
2021/12/14 13:37:59;;;;;;;44.15;14.32;;;8.70;99.90;;;;;;4863116;29;20046;-82
2021/12/14 13:40:32;;;;;;;39.17;14.27;;;8.80;99.90;;;;;;4852865;29;20105;-83
2021/12/14 13:43:10;;;;;;;40.60;14.90;;;8.70;99.90;;;;;;4846442;29;20045;-83
2021/12/14 13:45:55;;;;;;;39.88;14.02;;;8.80;99.90;;;;;;4863013;29;20049;-84
2021/12/14 13:48:31;;;;;;;43.95;14.10;;;8.80;99.90;;;;;;4845285;29;20050;-83
2021/12/14 13:51:18;;;;;;;39.08;14.30;;;8.80;99.90;;;;;;4851708;29;20041;-84
2021/12/14 13:53:48;;;;;;;42.35;13.60;;;8.80;99.90;;;;;;4846025;29;20097;-84
2021/12/14 13:56:19;;;;;;;43.38;13.77;;;8.80;99.90;;;;;;4845917;29;20081;-84
2021/12/14 13:58:46;;;;;;;43.55;13.20;;;8.80;99.90;;;;;;4845928;29;20049;-84
2021/12/14 14:01:26;;;;;;;43.70;13.23;;;8.80;99.90;;;;;;4846349;29;20128;-85
2021/12/14 14:03:57;;;;;;;37.85;13.57;;;8.80;99.90;;;;;;4846437;29;20058;-85
2021/12/14 14:06:23;;;;;;;41.45;13.48;;;8.80;99.90;;;;;;4846199;29;20557;-85